createdAt,value
2019-03-23T00:02:04.412Z,87.23
2019-03-23T00:04:33.562Z,87.93
2019-03-23T00:07:03.680Z,86.99
2019-03-23T00:09:33.282Z,87.03
2019-03-23T00:12:06.180Z,87.39
2019-03-23T00:14:35.288Z,87.23
2019-03-23T00:17:06.410Z,87.87
2019-03-23T00:19:35.516Z,88.24
2019-03-23T00:22:04.737Z,88.09
2019-03-23T00:24:33.981Z,88.02
2019-03-23T00:27:03.114Z,87.83
2019-03-23T00:29:32.910Z,87.89
2019-03-23T00:32:02.030Z,88.21
2019-03-23T00:34:31.253Z,88.83
2019-03-23T00:37:00.429Z,88.83
2019-03-23T00:39:29.531Z,88.18
2019-03-23T00:42:02.775Z,88.42
2019-03-23T00:44:31.896Z,88.56
2019-03-23T00:47:01.020Z,88.75
2019-03-23T00:49:30.125Z,89.49
2019-03-23T00:51:59.240Z,89.43
2019-03-23T00:54:28.488Z,89.56
2019-03-23T00:56:57.646Z,89.59
2019-03-23T00:59:26.779Z,89.51
2019-03-23T01:01:56.608Z,89.08
2019-03-23T01:04:25.726Z,89.17
2019-03-23T01:06:55.523Z,88.68
2019-03-23T01:09:24.642Z,88.56
2019-03-23T01:11:54.152Z,88.53
2019-03-23T01:14:23.566Z,90.10
2019-03-23T01:16:53.145Z,90.33
2019-03-23T01:19:24.381Z,90.52
2019-03-23T01:21:53.544Z,90.30
2019-03-23T01:24:26.497Z,90.00
2019-03-23T01:26:55.645Z,90.13
2019-03-23T01:29:25.157Z,90.05
2019-03-23T01:31:54.315Z,89.98
2019-03-23T01:34:23.453Z,89.93
2019-03-23T01:37:02.301Z,87.99
2019-03-23T01:39:24.086Z,88.08
2019-03-23T01:41:56.573Z,88.59
2019-03-23T01:44:26.002Z,88.82
2019-03-23T01:46:55.891Z,88.72
2019-03-23T01:49:25.785Z,88.98
2019-03-23T01:51:57.813Z,88.65
2019-03-23T01:54:27.192Z,88.74
2019-03-23T01:56:56.377Z,89.37
2019-03-23T01:59:27.952Z,89.14
2019-03-23T02:01:57.756Z,89.61
2019-03-23T02:04:27.214Z,89.92
2019-03-23T02:06:56.364Z,90.25
2019-03-23T02:09:25.488Z,90.75
2019-03-23T02:11:54.645Z,90.91
2019-03-23T02:14:24.442Z,90.69
2019-03-23T02:16:53.966Z,90.37
2019-03-23T02:19:26.467Z,90.51
2019-03-23T02:21:55.942Z,90.54
2019-03-23T02:24:25.588Z,90.13
2019-03-23T02:26:57.718Z,90.28
2019-03-23T02:29:26.815Z,90.87
2019-03-23T02:31:55.926Z,90.85
2019-03-23T02:34:28.168Z,90.95
2019-03-23T02:36:57.282Z,91.02
2019-03-23T02:39:28.525Z,90.83
2019-03-23T02:41:58.676Z,90.91
2019-03-23T02:44:28.149Z,90.88
2019-03-23T02:46:57.306Z,90.96
2019-03-23T02:49:26.767Z,90.91
2019-03-23T02:51:56.180Z,91.08
2019-03-23T02:54:25.393Z,91.33
2019-03-23T02:56:54.475Z,91.29
2019-03-23T02:59:23.590Z,91.00
2019-03-23T03:01:53.723Z,90.87
2019-03-23T03:04:23.408Z,90.52
2019-03-23T03:06:54.248Z,90.29
2019-03-23T03:09:23.322Z,90.51
2019-03-23T03:11:52.434Z,91.13
2019-03-23T03:14:23.711Z,91.22
2019-03-23T03:16:56.482Z,91.26
2019-03-23T03:19:30.887Z,91.17
2019-03-23T03:21:59.996Z,91.16
2019-03-23T03:24:29.158Z,91.11
2019-03-23T03:26:59.266Z,90.75
2019-03-23T03:29:28.704Z,90.61
2019-03-23T03:31:58.597Z,91.05
2019-03-23T03:34:31.417Z,90.82
2019-03-23T03:37:03.336Z,91.10
2019-03-23T03:39:32.473Z,91.20
2019-03-23T03:42:04.913Z,91.93
2019-03-23T03:44:34.459Z,91.81
2019-03-23T03:47:03.591Z,91.92
2019-03-23T03:49:32.671Z,91.80
2019-03-23T03:52:01.812Z,90.88
2019-03-23T03:54:31.648Z,90.81
2019-03-23T03:57:01.236Z,91.13
2019-03-23T03:59:30.396Z,91.27
2019-03-23T04:01:59.919Z,89.69
2019-03-23T04:04:30.332Z,90.05
2019-03-23T04:06:59.861Z,90.19
2019-03-23T04:09:32.120Z,90.78
2019-03-23T04:12:01.529Z,91.53
2019-03-23T04:14:30.636Z,91.63
2019-03-23T04:16:59.750Z,92.08
2019-03-23T04:19:28.861Z,92.10
2019-03-23T04:21:58.365Z,91.83
2019-03-23T04:24:27.493Z,91.88
2019-03-23T04:26:56.623Z,92.08
2019-03-23T04:29:26.109Z,91.71
2019-03-23T04:31:55.225Z,91.41
2019-03-23T04:34:24.352Z,91.37
2019-03-23T04:36:53.487Z,90.94
2019-03-23T04:39:23.354Z,90.75
2019-03-23T04:41:58.174Z,90.75
2019-03-23T04:44:28.298Z,90.86
2019-03-23T04:46:57.461Z,91.12
2019-03-23T04:49:26.581Z,90.64
2019-03-23T04:51:56.866Z,90.32
2019-03-23T04:54:26.030Z,90.12
2019-03-23T04:56:55.913Z,89.90
2019-03-23T04:59:25.803Z,89.90
2019-03-23T05:01:58.235Z,90.01
2019-03-23T05:04:27.597Z,90.00
2019-03-23T05:06:57.130Z,89.86
2019-03-23T05:09:26.319Z,90.03
2019-03-23T05:11:58.482Z,90.19
2019-03-23T05:14:29.435Z,90.01
2019-03-23T05:16:58.823Z,89.55
2019-03-23T05:19:27.979Z,90.11
2019-03-23T05:21:57.460Z,90.47
2019-03-23T05:24:27.205Z,90.75
2019-03-23T05:26:56.306Z,90.45
2019-03-23T05:29:25.452Z,89.99
2019-03-23T05:31:54.942Z,90.17
2019-03-23T05:34:24.497Z,90.29
2019-03-23T05:36:53.602Z,89.91
2019-03-23T05:39:22.742Z,90.21
2019-03-23T05:41:53.256Z,90.51
2019-03-23T05:44:23.400Z,90.42
2019-03-23T05:46:54.328Z,90.12
2019-03-23T05:49:23.642Z,89.49
2019-03-23T05:51:56.458Z,89.72
2019-03-23T05:54:26.082Z,89.73
2019-03-23T05:56:58.311Z,89.54
2019-03-23T05:59:27.749Z,89.23
2019-03-23T06:01:56.857Z,89.09
2019-03-23T06:04:25.987Z,88.87
2019-03-23T06:06:55.541Z,88.64
2019-03-23T06:09:28.219Z,89.09
2019-03-23T06:11:57.298Z,89.38
2019-03-23T06:14:26.756Z,89.15
2019-03-23T06:16:55.860Z,89.31
2019-03-23T06:19:25.402Z,89.22
2019-03-23T06:21:55.283Z,89.09
2019-03-23T06:24:25.151Z,88.30
2019-03-23T06:26:54.270Z,87.17
2019-03-23T06:29:28.662Z,86.90
2019-03-23T06:31:57.784Z,86.87
2019-03-23T06:34:26.968Z,87.00
2019-03-23T06:36:56.071Z,86.79
2019-03-23T06:39:25.225Z,86.04
2019-03-23T06:41:54.340Z,85.61
2019-03-23T06:44:23.528Z,85.61
2019-03-23T06:46:52.652Z,85.40
2019-03-23T06:49:22.244Z,84.92
2019-03-23T06:51:52.047Z,84.61
2019-03-23T06:54:21.263Z,84.69
2019-03-23T06:56:50.727Z,84.15
2019-03-23T06:59:19.899Z,84.10
2019-03-23T07:01:49.331Z,84.65
2019-03-23T07:04:21.638Z,85.16
2019-03-23T07:06:50.770Z,85.70
2019-03-23T07:09:20.621Z,86.09
2019-03-23T07:11:50.428Z,86.05
2019-03-23T07:14:19.856Z,86.58
2019-03-23T07:16:48.967Z,86.60
2019-03-23T07:19:18.751Z,86.42
2019-03-23T07:21:47.839Z,85.80
2019-03-23T07:24:19.403Z,85.83
2019-03-23T07:26:48.495Z,86.04
2019-03-23T07:29:17.605Z,85.90
2019-03-23T07:31:46.706Z,86.20
2019-03-23T07:34:18.317Z,86.53
2019-03-23T07:36:47.412Z,86.40
2019-03-23T07:39:26.653Z,86.63
2019-03-23T07:41:51.179Z,87.04
2019-03-23T07:44:20.328Z,87.60
2019-03-23T07:46:49.599Z,87.49
2019-03-23T07:49:19.031Z,87.25
2019-03-23T07:51:48.820Z,87.57
2019-03-23T07:54:17.993Z,87.45
2019-03-23T07:56:47.100Z,87.51
2019-03-23T07:59:16.237Z,87.68
2019-03-23T08:01:48.102Z,87.19
2019-03-23T08:04:17.229Z,87.83
2019-03-23T08:06:46.334Z,87.56
2019-03-23T08:09:20.499Z,87.02
2019-03-23T08:11:49.821Z,87.51
2019-03-23T08:14:18.912Z,87.73
2019-03-23T08:16:48.033Z,86.99
2019-03-23T08:19:17.765Z,86.80
2019-03-23T08:21:48.121Z,87.17
2019-03-23T08:24:17.235Z,87.08
2019-03-23T08:26:46.686Z,86.89
2019-03-23T08:29:15.894Z,86.99
2019-03-23T08:31:44.999Z,87.08
2019-03-23T08:34:14.518Z,86.66
2019-03-23T08:36:46.835Z,85.41
2019-03-23T08:39:15.954Z,84.45
2019-03-23T08:41:45.038Z,84.42
2019-03-23T08:44:14.157Z,84.18
2019-03-23T08:46:47.012Z,83.70
2019-03-23T08:49:16.114Z,83.66
2019-03-23T08:51:45.249Z,83.78
2019-03-23T08:54:14.554Z,83.72
2019-03-23T08:56:43.651Z,82.75
2019-03-23T08:59:12.769Z,82.20
2019-03-23T09:01:41.885Z,81.63
2019-03-23T09:04:16.540Z,81.65
2019-03-23T09:06:45.641Z,81.34
2019-03-23T09:09:14.765Z,81.18
2019-03-23T09:11:43.892Z,80.66
2019-03-23T09:14:13.330Z,80.44
2019-03-23T09:16:42.732Z,80.44
2019-03-23T09:19:11.825Z,80.47
2019-03-23T09:21:41.284Z,80.93
2019-03-23T09:24:15.149Z,80.49
2019-03-23T09:26:44.272Z,80.98
2019-03-23T09:29:13.668Z,80.82
2019-03-23T09:31:52.267Z,81.01
2019-03-23T09:34:22.365Z,80.06
2019-03-23T09:36:52.174Z,80.05
2019-03-23T09:39:21.291Z,80.18
2019-03-23T09:41:53.833Z,79.92
2019-03-23T09:44:24.079Z,79.54
2019-03-23T09:46:53.219Z,79.29
2019-03-23T09:49:27.931Z,79.07
2019-03-23T09:51:57.636Z,78.91
2019-03-23T09:54:26.752Z,78.22
2019-03-23T09:56:56.854Z,78.39
2019-03-23T09:59:26.338Z,77.91
2019-03-23T10:01:55.455Z,77.91
2019-03-23T10:04:24.955Z,78.39
2019-03-23T10:06:54.983Z,78.25
2019-03-23T10:09:33.661Z,77.87
2019-03-23T10:12:02.810Z,78.50
2019-03-23T10:14:34.861Z,78.21
2019-03-23T10:17:03.968Z,77.58
2019-03-23T10:19:33.075Z,77.85
2019-03-23T10:22:03.114Z,78.05
2019-03-23T10:24:32.219Z,77.82
2019-03-23T10:27:02.616Z,77.93
2019-03-23T10:29:31.709Z,77.81
2019-03-23T10:32:00.820Z,77.65
2019-03-23T10:34:32.285Z,77.74
2019-03-23T10:37:01.989Z,77.74
2019-03-23T10:39:31.098Z,77.04
2019-03-23T10:42:00.485Z,76.72
2019-03-23T10:44:29.615Z,77.20
2019-03-23T10:46:58.738Z,77.75
2019-03-23T10:49:30.537Z,77.75
2019-03-23T10:52:00.031Z,77.97
2019-03-23T10:54:29.526Z,77.25
2019-03-23T10:56:58.946Z,76.77
2019-03-23T10:59:28.148Z,76.91
2019-03-23T11:01:57.817Z,76.88
2019-03-23T11:04:27.538Z,76.80
2019-03-23T11:07:00.051Z,76.20
2019-03-23T11:09:29.517Z,76.39
2019-03-23T11:11:58.643Z,76.52
2019-03-23T11:14:30.779Z,76.33
2019-03-23T11:17:00.928Z,76.03
2019-03-23T11:19:33.173Z,75.78
2019-03-23T11:22:02.706Z,76.02
2019-03-23T11:24:35.118Z,76.12
2019-03-23T11:27:08.144Z,76.02
2019-03-23T11:29:37.256Z,75.91
2019-03-23T11:32:09.671Z,75.97
2019-03-23T11:34:46.742Z,75.46
2019-03-23T11:37:15.927Z,75.14
2019-03-23T11:39:45.213Z,74.51
2019-03-23T11:42:16.835Z,74.79
2019-03-23T11:44:46.376Z,74.25
2019-03-23T11:47:15.597Z,73.82
2019-03-23T11:49:46.186Z,72.48
2019-03-23T11:52:16.726Z,72.88
2019-03-23T11:54:48.897Z,72.44
2019-03-23T11:57:18.025Z,72.74
2019-03-23T11:59:47.108Z,73.64
2019-03-23T12:02:19.521Z,73.44
2019-03-23T12:04:48.623Z,72.87
2019-03-23T12:07:17.774Z,72.62
2019-03-23T12:09:49.597Z,71.74
2019-03-23T12:12:18.702Z,71.95
2019-03-23T12:14:51.498Z,71.54
2019-03-23T12:17:21.011Z,70.83
2019-03-23T12:19:50.888Z,70.29
2019-03-23T12:22:20.017Z,69.09
2019-03-23T12:24:49.835Z,69.14
2019-03-23T12:27:18.933Z,68.29
2019-03-23T12:29:51.404Z,67.43
2019-03-23T12:32:20.951Z,66.87
2019-03-23T12:34:50.982Z,66.97
2019-03-23T12:37:22.957Z,68.28
2019-03-23T12:39:52.087Z,67.91
2019-03-23T12:42:21.198Z,68.19
2019-03-23T12:44:50.278Z,67.82
2019-03-23T12:47:19.460Z,67.54
2019-03-23T12:49:48.564Z,67.34
2019-03-23T12:52:18.269Z,66.75
2019-03-23T12:54:47.774Z,66.00
2019-03-23T12:57:17.248Z,65.64
2019-03-23T12:59:46.391Z,65.39
2019-03-23T13:02:17.132Z,64.15
2019-03-23T13:04:46.946Z,63.40
2019-03-23T13:07:16.052Z,62.84
2019-03-23T13:09:45.154Z,62.26
2019-03-23T13:12:14.675Z,62.80
2019-03-23T13:14:44.155Z,62.20
2019-03-23T13:17:13.267Z,62.16
2019-03-23T13:19:42.355Z,61.73
2019-03-23T13:22:12.175Z,62.02
2019-03-23T13:24:41.948Z,62.90
2019-03-23T13:27:15.114Z,62.36
2019-03-23T13:29:44.763Z,62.34
2019-03-23T13:32:13.886Z,62.66
2019-03-23T13:34:43.046Z,62.04
2019-03-23T13:37:12.657Z,61.62
2019-03-23T13:39:42.329Z,60.95
2019-03-23T13:42:11.425Z,61.13
2019-03-23T13:44:44.584Z,61.27
2019-03-23T13:47:13.691Z,61.37
2019-03-23T13:49:43.423Z,61.89
2019-03-23T13:52:12.528Z,61.79
2019-03-23T13:54:43.275Z,60.83
2019-03-23T13:57:12.364Z,60.28
2019-03-23T13:59:42.143Z,61.14
2019-03-23T14:02:11.943Z,60.82
2019-03-23T14:04:41.140Z,60.75
2019-03-23T14:07:10.929Z,61.22
2019-03-23T14:09:40.131Z,61.76
2019-03-23T14:12:09.322Z,62.90
2019-03-23T14:14:38.455Z,61.80
2019-03-23T14:17:07.572Z,60.82
2019-03-23T14:19:40.491Z,60.85
2019-03-23T14:22:09.629Z,60.20
2019-03-23T14:24:38.831Z,60.39
2019-03-23T14:27:07.946Z,59.87
2019-03-23T14:29:37.064Z,59.76
2019-03-23T14:32:08.168Z,59.83
2019-03-23T14:34:37.302Z,60.19
2019-03-23T14:37:06.386Z,59.97
2019-03-23T14:39:35.623Z,59.86
2019-03-23T14:42:07.951Z,59.73
2019-03-23T14:44:37.083Z,60.42
2019-03-23T14:47:06.170Z,61.08
2019-03-23T14:49:35.316Z,60.24
2019-03-23T14:52:04.416Z,60.43
2019-03-23T14:54:33.525Z,61.68
2019-03-23T14:57:02.689Z,61.39
2019-03-23T14:59:31.795Z,61.93
2019-03-23T15:02:02.198Z,62.56
2019-03-23T15:04:31.316Z,62.95
2019-03-23T15:07:00.450Z,65.01
2019-03-23T15:09:29.585Z,64.22
2019-03-23T15:12:00.285Z,64.12
2019-03-23T15:14:29.424Z,65.04
2019-03-23T15:16:58.520Z,65.39
2019-03-23T15:19:27.653Z,65.03
2019-03-23T15:21:56.758Z,65.04
2019-03-23T15:24:25.903Z,65.04
2019-03-23T15:26:55.056Z,65.36
2019-03-23T15:29:24.205Z,65.82
2019-03-23T15:31:53.617Z,66.09
2019-03-23T15:34:22.751Z,66.06
2019-03-23T15:36:51.839Z,65.60
2019-03-23T15:39:20.956Z,65.65
2019-03-23T15:41:53.307Z,66.03
2019-03-23T15:44:22.494Z,66.50
2019-03-23T15:46:51.882Z,66.25
2019-03-23T15:49:23.882Z,66.46
2019-03-23T15:51:52.996Z,66.80
2019-03-23T15:54:22.256Z,67.53
2019-03-23T15:56:51.366Z,67.62
2019-03-23T15:59:27.005Z,67.98
2019-03-23T16:01:56.093Z,67.19
2019-03-23T16:04:25.622Z,67.82
2019-03-23T16:06:56.740Z,68.62
2019-03-23T16:09:25.578Z,68.90
2019-03-23T16:11:54.915Z,69.01
2019-03-23T16:14:24.018Z,68.50
2019-03-23T16:16:53.181Z,68.83
2019-03-23T16:19:25.381Z,69.81
2019-03-23T16:21:56.090Z,70.64
2019-03-23T16:24:25.242Z,70.70
2019-03-23T16:26:54.642Z,71.23
2019-03-23T16:29:23.754Z,70.79
2019-03-23T16:31:52.891Z,70.49
2019-03-23T16:34:21.990Z,70.53
2019-03-23T16:36:51.145Z,70.06
2019-03-23T16:39:20.197Z,69.81
2019-03-23T16:41:49.389Z,69.49
2019-03-23T16:44:19.363Z,69.39
2019-03-23T16:46:48.503Z,70.00
2019-03-23T16:49:17.644Z,70.28
2019-03-23T16:51:46.792Z,70.34
2019-03-23T16:54:15.899Z,70.08
2019-03-23T16:56:45.045Z,69.96
2019-03-23T16:59:14.183Z,69.81
2019-03-23T17:01:43.363Z,70.11
2019-03-23T17:04:13.448Z,70.04
2019-03-23T17:06:46.686Z,70.76
2019-03-23T17:09:13.669Z,71.32
2019-03-23T17:11:42.790Z,71.74
2019-03-23T17:14:11.897Z,72.02
2019-03-23T17:16:45.964Z,72.54
2019-03-23T17:19:15.046Z,72.44
2019-03-23T17:21:44.164Z,72.61
2019-03-23T17:24:14.072Z,72.73
2019-03-23T17:26:45.156Z,72.89
2019-03-23T17:29:14.018Z,73.17
2019-03-23T17:31:43.143Z,73.33
2019-03-23T17:34:15.386Z,73.67
2019-03-23T17:36:45.631Z,73.73
2019-03-23T17:39:14.792Z,74.24
2019-03-23T17:41:43.936Z,74.35
2019-03-23T17:44:13.016Z,74.45
2019-03-23T17:46:42.128Z,75.49
2019-03-23T17:49:11.721Z,75.96
2019-03-23T17:51:40.853Z,76.48
2019-03-23T17:54:09.945Z,76.67
2019-03-23T17:56:39.053Z,76.35
2019-03-23T17:59:08.503Z,76.40
2019-03-23T18:01:37.955Z,76.38
2019-03-23T18:04:07.053Z,77.05
2019-03-23T18:06:36.161Z,76.71
2019-03-23T18:09:05.699Z,77.75
2019-03-23T18:11:35.901Z,78.55
2019-03-23T18:14:05.370Z,78.29
2019-03-23T18:16:34.477Z,78.20
2019-03-23T18:19:03.582Z,78.75
2019-03-23T18:21:32.701Z,79.45
2019-03-23T18:24:01.798Z,79.47
2019-03-23T18:26:30.910Z,79.78
2019-03-23T18:29:00.004Z,80.02
2019-03-23T18:31:29.145Z,79.92
2019-03-23T18:33:58.394Z,80.09
2019-03-23T18:36:27.516Z,80.16
2019-03-23T18:38:56.612Z,80.44
2019-03-23T18:41:25.992Z,80.76
2019-03-23T18:43:55.236Z,80.37
2019-03-23T18:46:24.755Z,80.60
2019-03-23T18:48:53.857Z,80.60
2019-03-23T18:51:23.289Z,80.79
2019-03-23T18:53:52.401Z,80.90
2019-03-23T18:56:21.530Z,81.12
2019-03-23T18:58:50.640Z,80.98
2019-03-23T19:01:19.774Z,80.86
2019-03-23T19:03:48.953Z,81.15
2019-03-23T19:06:18.104Z,81.27
2019-03-23T19:08:51.256Z,81.13
2019-03-23T19:11:20.360Z,81.29
2019-03-23T19:13:49.466Z,81.72
2019-03-23T19:16:18.624Z,80.97
2019-03-23T19:18:49.257Z,81.00
2019-03-23T19:21:18.494Z,81.10
2019-03-23T19:23:51.434Z,81.03
2019-03-23T19:26:20.542Z,80.73
2019-03-23T19:28:49.668Z,80.84
2019-03-23T19:31:18.764Z,80.98
2019-03-23T19:33:48.692Z,80.90
2019-03-23T19:36:17.797Z,81.08
2019-03-23T19:38:46.897Z,80.90
2019-03-23T19:41:16.417Z,81.09
2019-03-23T19:43:49.671Z,81.10
2019-03-23T19:46:16.366Z,81.47
2019-03-23T19:48:45.491Z,81.31
2019-03-23T19:51:14.571Z,81.52
2019-03-23T19:53:44.063Z,81.71
2019-03-23T19:56:13.155Z,81.67
2019-03-23T19:58:42.323Z,82.25
2019-03-23T20:01:11.386Z,82.91
2019-03-23T20:03:40.488Z,82.76
2019-03-23T20:06:09.577Z,83.79
2019-03-23T20:08:38.711Z,84.00
2019-03-23T20:11:07.842Z,82.83
2019-03-23T20:13:36.965Z,80.95
2019-03-23T20:16:06.059Z,78.97
2019-03-23T20:18:35.180Z,77.49
2019-03-23T20:21:04.288Z,77.27
2019-03-23T20:23:33.405Z,77.17
2019-03-23T20:26:02.494Z,79.43
2019-03-23T20:28:35.045Z,77.68
2019-03-23T20:31:04.149Z,77.68
2019-03-23T20:33:33.265Z,78.22
2019-03-23T20:36:02.341Z,78.83
2019-03-23T20:38:31.440Z,78.70
2019-03-23T20:41:00.606Z,78.34
2019-03-23T20:43:30.178Z,79.93
2019-03-23T20:46:02.078Z,80.92
2019-03-23T20:48:31.197Z,81.12
2019-03-23T20:51:02.886Z,81.53
2019-03-23T20:53:32.006Z,81.20
2019-03-23T20:56:03.141Z,80.99
2019-03-23T20:58:32.295Z,80.84
2019-03-23T21:01:01.404Z,80.72
2019-03-23T21:03:30.525Z,80.44
2019-03-23T21:05:59.589Z,80.45
2019-03-23T21:08:29.025Z,79.57
2019-03-23T21:10:58.088Z,78.77
2019-03-23T21:13:27.532Z,77.20
2019-03-23T21:15:56.630Z,77.07
2019-03-23T21:18:25.804Z,77.63
2019-03-23T21:20:54.901Z,77.05
2019-03-23T21:23:24.664Z,77.66
2019-03-23T21:25:53.792Z,78.12
2019-03-23T21:28:23.266Z,77.17
2019-03-23T21:30:53.041Z,77.36
2019-03-23T21:33:22.178Z,77.67
2019-03-23T21:35:51.259Z,77.75
2019-03-23T21:38:20.369Z,78.10
2019-03-23T21:40:49.636Z,78.09
2019-03-23T21:43:18.697Z,77.52
2019-03-23T21:45:47.859Z,78.10
2019-03-23T21:48:16.975Z,77.74
2019-03-23T21:50:47.679Z,77.44
2019-03-23T21:53:16.964Z,76.53
2019-03-23T21:55:46.053Z,76.26
2019-03-23T21:58:15.181Z,76.16
2019-03-23T22:00:44.658Z,75.81
2019-03-23T22:03:16.131Z,75.14
2019-03-23T22:05:45.703Z,75.14
2019-03-23T22:08:15.532Z,74.59
2019-03-23T22:10:44.617Z,74.59
2019-03-23T22:13:17.216Z,75.26
2019-03-23T22:15:46.339Z,75.24
2019-03-23T22:18:15.641Z,75.11
2019-03-23T22:20:44.741Z,74.45
2019-03-23T22:23:13.855Z,74.00
2019-03-23T22:25:42.966Z,74.19
2019-03-23T22:28:12.105Z,73.76
2019-03-23T22:30:41.195Z,73.79
2019-03-23T22:33:10.953Z,74.24
2019-03-23T22:35:40.838Z,74.37
2019-03-23T22:38:10.215Z,74.31
2019-03-23T22:40:39.311Z,74.30
2019-03-23T22:43:08.424Z,74.27
2019-03-23T22:45:37.545Z,74.24
2019-03-23T22:48:06.634Z,74.52
2019-03-23T22:50:35.762Z,74.34
2019-03-23T22:53:05.304Z,74.51
2019-03-23T22:55:34.465Z,75.06
2019-03-23T22:58:03.575Z,75.31
2019-03-23T23:00:44.132Z,75.52
2019-03-23T23:03:13.683Z,75.62
2019-03-23T23:05:43.061Z,75.46
2019-03-23T23:08:12.873Z,75.35
2019-03-23T23:10:42.437Z,75.33
2019-03-23T23:13:11.534Z,74.98
2019-03-23T23:15:40.657Z,74.76
2019-03-23T23:18:09.743Z,74.87
2019-03-23T23:20:38.853Z,74.87
2019-03-23T23:23:08.378Z,75.05
2019-03-23T23:25:37.513Z,75.35
2019-03-23T23:28:06.619Z,75.15
2019-03-23T23:30:35.735Z,75.33
2019-03-23T23:33:04.865Z,75.44
2019-03-23T23:35:33.975Z,75.30
2019-03-23T23:38:03.377Z,75.27
2019-03-23T23:40:32.467Z,75.18
2019-03-23T23:43:01.564Z,75.11
2019-03-23T23:45:31.074Z,75.12
2019-03-23T23:48:00.232Z,75.73
2019-03-23T23:50:29.302Z,76.02
2019-03-23T23:53:00.254Z,76.42
2019-03-23T23:55:29.647Z,76.82
2019-03-23T23:57:58.851Z,76.84
